Terminal Aerodrome Forecast
Issued by NWS

Home | Current Version | Previous Version | Text Only | Print | Product List | Glossary On
Versions: 1 2 3 4 5 6 7 8 9 10 11 12 13 14
724
FTUS43 KBIS 302332
TAFDIK
TAF
KDIK 302332Z 0100/0124 15013KT P6SM BKN130
     FM010400 15009KT P6SM FEW200=

USA.gov is the U.S. government's official web portal to all federal, state and local government web resources and services.